Time;durP1;ratioP1;P1;durP2;ratioP2;P2;SDS_P1;SDS_P2;PMS_P1;PMS_P2;Temp;Humidity;BMP_temperature;BMP_pressure;BME280_temperature;BME280_humidity;BME280_pressure;Samples;Min_cycle;Max_cycle;Signal;HPM_P1;HPM_P2
2023/06/23 00:02:16;;;;;;;;;;;18.10;99.90;;;;;;5085950;28;20029;-74
2023/06/23 00:04:43;;;;;;;;;;;18.10;99.90;;;;;;5108600;28;20264;-74
2023/06/23 00:07:10;;;;;;;;;;;18.10;99.90;;;;;;5093390;28;20020;-74
2023/06/23 00:09:37;;;;;;;;;;;18.00;99.90;;;;;;5107110;28;20076;-74
2023/06/23 00:12:07;;;;;;;;;;;18.00;99.90;;;;;;5092499;28;20020;-75
2023/06/23 00:14:34;;;;;;;;;;;18.10;99.90;;;;;;5074527;28;20051;-74
2023/06/23 00:17:02;;;;;;;;;;;18.10;99.90;;;;;;5075793;28;20081;-74
2023/06/23 00:19:31;;;;;;;;;;;18.00;99.90;;;;;;5065557;28;20099;-74
2023/06/23 00:21:58;;;;;;;;;;;18.00;99.90;;;;;;5091031;28;20056;-74
2023/06/23 00:24:24;;;;;;;;;;;17.90;99.90;;;;;;5090861;28;20027;-74
2023/06/23 00:26:51;;;;;;;;;;;18.00;99.90;;;;;;5083508;28;20421;-74
2023/06/23 00:29:19;;;;;;;;;;;17.90;99.90;;;;;;5072349;28;20009;-74
2023/06/23 00:31:45;;;;;;;;;;;17.90;99.90;;;;;;5064957;28;20012;-75
2023/06/23 00:34:12;;;;;;;;;;;17.90;99.90;;;;;;5079883;28;20179;-77
2023/06/23 00:36:39;;;;;;;;;;;17.90;99.90;;;;;;5058663;28;20066;-76
2023/06/23 00:39:05;;;;;;;;;;;18.00;99.90;;;;;;5087345;28;20000;-76
2023/06/23 00:41:32;;;;;;;;;;;17.90;99.90;;;;;;5054544;28;20059;-76
2023/06/23 00:43:59;;;;;;;;;;;17.90;99.90;;;;;;5080480;28;19996;-78
2023/06/23 00:46:27;;;;;;;;;;;18.00;99.90;;;;;;5074029;28;20095;-77
2023/06/23 00:48:54;;;;;;;;;;;17.90;99.90;;;;;;5086852;28;20016;-77
2023/06/23 00:51:24;;;;;;;;;;;17.90;99.90;;;;;;5089879;28;20436;-76
2023/06/23 00:53:51;;;;;;;;;;;18.00;99.90;;;;;;5072907;28;21187;-76
2023/06/23 00:56:22;;;;;;;;;;;17.90;99.90;;;;;;5087218;28;20042;-76
2023/06/23 00:58:49;;;;;;;;;;;17.90;99.90;;;;;;5066146;28;20523;-76
2023/06/23 01:01:16;;;;;;;;;;;17.90;99.90;;;;;;5073360;28;20008;-76
2023/06/23 01:03:43;;;;;;;;;;;18.00;99.90;;;;;;5088161;28;20062;-77
2023/06/23 01:06:24;;;;;;;;;;;17.90;99.90;;;;;;5053047;28;20060;-76
2023/06/23 01:08:56;;;;;;;;;;;17.90;99.90;;;;;;5071074;28;20698;-77
2023/06/23 01:11:28;;;;;;;;;;;17.90;99.90;;;;;;5076311;28;20472;-77
2023/06/23 01:14:15;;;;;;;;;;;17.90;99.90;;;;;;5084995;28;20023;-77
2023/06/23 01:16:48;;;;;;;;;;;17.90;99.90;;;;;;5064660;28;20016;-77
2023/06/23 01:19:14;;;;;;;;;;;17.80;99.90;;;;;;5088824;28;20562;-77
2023/06/23 01:21:44;;;;;;;;;;;17.80;99.90;;;;;;5067634;28;20008;-76
2023/06/23 01:24:35;;;;;;;;;;;17.70;99.90;;;;;;5078522;28;20013;-77
2023/06/23 01:27:24;;;;;;;;;;;17.80;99.90;;;;;;5087973;28;20008;-77
2023/06/23 01:29:52;;;;;;;;;;;17.70;99.90;;;;;;5033386;28;20056;-77
2023/06/23 01:32:27;;;;;;;;;;;17.60;99.90;;;;;;5066209;28;20009;-77
2023/06/23 01:34:56;;;;;;;;;;;17.60;99.90;;;;;;5084103;28;20024;-76
2023/06/23 01:37:26;;;;;;;;;;;17.60;99.90;;;;;;5082021;28;20009;-76
2023/06/23 01:39:56;;;;;;;;;;;17.60;99.90;;;;;;5082847;28;20130;-77
2023/06/23 01:42:25;;;;;;;;;;;17.60;99.90;;;;;;5075007;28;20019;-77
2023/06/23 01:44:57;;;;;;;;;;;17.50;99.90;;;;;;5079172;28;20024;-77
2023/06/23 01:47:31;;;;;;;;;;;17.50;99.90;;;;;;5069987;28;20020;-77
2023/06/23 01:50:00;;;;;;;;;;;17.60;99.90;;;;;;5065415;28;20017;-77
2023/06/23 01:52:28;;;;;;;;;;;17.50;99.90;;;;;;5088219;28;20697;-77
2023/06/23 01:54:55;;;;;;;;;;;17.60;99.90;;;;;;5081280;28;20894;-76
2023/06/23 01:57:24;;;;;;;;;;;17.50;99.90;;;;;;5061346;28;20055;-77
2023/06/23 01:59:51;;;;;;;;;;;17.50;99.90;;;;;;5062753;28;20011;-77
2023/06/23 02:02:18;;;;;;;;;;;17.50;99.90;;;;;;5071847;28;20013;-77
2023/06/23 02:04:47;;;;;;;;;;;17.40;99.90;;;;;;5083238;28;20052;-77
2023/06/23 02:07:16;;;;;;;;;;;17.40;99.90;;;;;;5067121;28;20009;-76
2023/06/23 02:09:44;;;;;;;;;;;17.50;99.90;;;;;;5064847;28;20059;-76
2023/06/23 02:12:12;;;;;;;;;;;17.50;99.90;;;;;;5082110;28;20035;-77
2023/06/23 02:14:40;;;;;;;;;;;17.40;99.90;;;;;;5055908;28;20019;-77
2023/06/23 02:17:09;;;;;;;;;;;17.40;99.90;;;;;;5073177;28;20017;-77
2023/06/23 02:19:41;;;;;;;;;;;17.40;99.90;;;;;;5072119;28;20778;-77
2023/06/23 02:22:12;;;;;;;;;;;17.40;99.90;;;;;;5086634;28;20074;-77
2023/06/23 02:24:39;;;;;;;;;;;17.40;99.90;;;;;;5066381;28;20020;-76
2023/06/23 02:27:07;;;;;;;;;;;17.30;99.90;;;;;;5084966;28;20016;-77
2023/06/23 02:29:37;;;;;;;;;;;17.30;99.90;;;;;;5067818;28;20012;-77
2023/06/23 02:32:04;;;;;;;;;;;17.40;99.90;;;;;;5073979;28;20009;-77
2023/06/23 02:34:31;;;;;;;;;;;17.20;99.90;;;;;;5060620;28;20016;-76
2023/06/23 02:37:01;;;;;;;;;;;17.30;99.90;;;;;;5066680;28;20017;-76
2023/06/23 02:39:30;;;;;;;;;;;17.30;99.90;;;;;;5069562;28;20083;-78
2023/06/23 02:41:58;;;;;;;;;;;17.30;99.90;;;;;;5074272;28;21656;-78
2023/06/23 02:44:35;;;;;;;;;;;17.10;99.90;;;;;;5083969;28;20066;-76
2023/06/23 02:47:05;;;;;;;;;;;16.80;99.90;;;;;;5086085;28;20009;-77
2023/06/23 02:49:32;;;;;;;;;;;16.60;99.90;;;;;;5067257;28;20016;-77
2023/06/23 02:52:00;;;;;;;;;;;16.40;99.90;;;;;;5073495;28;20067;-76
2023/06/23 02:54:31;;;;;;;;;;;16.30;99.90;;;;;;5093532;28;20094;-77
2023/06/23 02:56:58;;;;;;;;;;;16.20;99.90;;;;;;5075482;28;20065;-76
2023/06/23 02:59:26;;;;;;;;;;;16.10;99.90;;;;;;5063189;28;19997;-77
2023/06/23 03:01:54;;;;;;;;;;;16.00;99.90;;;;;;5087876;28;20012;-76
2023/06/23 03:04:22;;;;;;;;;;;15.90;99.90;;;;;;5073489;28;20043;-76
2023/06/23 03:06:49;;;;;;;;;;;15.90;99.90;;;;;;5072710;28;21108;-76
2023/06/23 03:09:16;;;;;;;;;;;15.90;99.90;;;;;;5080859;28;19997;-76
2023/06/23 03:11:42;;;;;;;;;;;15.80;99.90;;;;;;5071473;28;20017;-76
2023/06/23 03:14:09;;;;;;;;;;;15.70;99.90;;;;;;5091475;28;20019;-77
2023/06/23 03:16:39;;;;;;;;;;;15.70;99.90;;;;;;5061522;28;20448;-75
2023/06/23 03:19:19;;;;;;;;;;;15.60;99.90;;;;;;5063965;28;20061;-76
2023/06/23 03:22:01;;;;;;;;;;;15.60;99.90;;;;;;5071246;28;20088;-75
2023/06/23 03:24:30;;;;;;;;;;;15.60;99.90;;;;;;5072225;28;20024;-76
2023/06/23 03:26:58;;;;;;;;;;;15.60;99.90;;;;;;5089605;28;20054;-75
2023/06/23 03:29:29;;;;;;;;;;;15.60;99.90;;;;;;5076616;28;20111;-74
2023/06/23 03:31:58;;;;;;;;;;;15.60;99.90;;;;;;5081712;28;20169;-75
2023/06/23 03:34:29;;;;;;;;;;;15.60;99.90;;;;;;5102110;28;20017;-76
2023/06/23 03:36:56;;;;;;;;;;;15.60;99.90;;;;;;5101645;28;20030;-75
2023/06/23 03:39:24;;;;;;;;;;;15.60;99.90;;;;;;5108988;28;19997;-75
2023/06/23 03:41:51;;;;;;;;;;;15.50;99.90;;;;;;5096409;28;20070;-78
2023/06/23 03:44:24;;;;;;;;;;;15.50;99.90;;;;;;5073899;28;20092;-78
2023/06/23 03:46:56;;;;;;;;;;;15.50;99.90;;;;;;5082352;28;20303;-79
2023/06/23 03:49:27;;;;;;;;;;;15.40;99.90;;;;;;5123258;28;19993;-78
2023/06/23 03:51:56;;;;;;;;;;;15.40;99.90;;;;;;5095923;28;20001;-75
2023/06/23 03:54:23;;;;;;;;;;;15.40;99.90;;;;;;5084475;28;20048;-78
2023/06/23 03:56:51;;;;;;;;;;;15.40;99.90;;;;;;5075950;28;20059;-75
2023/06/23 03:59:19;;;;;;;;;;;15.40;99.90;;;;;;5093396;28;19997;-75
2023/06/23 04:01:47;;;;;;;;;;;15.30;99.90;;;;;;5086691;28;20062;-76
2023/06/23 04:04:15;;;;;;;;;;;15.30;99.90;;;;;;5089679;28;20105;-75
2023/06/23 04:06:43;;;;;;;;;;;15.30;99.90;;;;;;5087001;28;20015;-75
2023/06/23 04:09:10;;;;;;;;;;;15.20;99.90;;;;;;5090341;28;19996;-75
2023/06/23 04:11:38;;;;;;;;;;;15.20;99.90;;;;;;5091944;28;20125;-75
2023/06/23 04:14:06;;;;;;;;;;;15.10;99.90;;;;;;5083712;28;20016;-77
2023/06/23 04:16:35;;;;;;;;;;;15.10;99.90;;;;;;5091300;28;20051;-77
2023/06/23 04:19:02;;;;;;;;;;;15.10;99.90;;;;;;5075978;28;20005;-78
2023/06/23 04:21:30;;;;;;;;;;;15.00;99.90;;;;;;5073771;28;20632;-77
2023/06/23 04:23:57;;;;;;;;;;;15.00;99.90;;;;;;5089232;28;20663;-77
2023/06/23 04:26:26;;;;;;;;;;;14.90;99.90;;;;;;5063441;28;20057;-76
2023/06/23 04:28:53;;;;;;;;;;;14.90;99.90;;;;;;5072993;28;20005;-76
2023/06/23 04:31:21;;;;;;;;;;;14.80;99.90;;;;;;5064871;28;20518;-76
2023/06/23 04:33:47;;;;;;;;;;;14.70;99.90;;;;;;5068661;28;20041;-77
2023/06/23 04:36:15;;;;;;;;;;;14.70;99.90;;;;;;5079740;28;20013;-76
2023/06/23 04:38:55;;;;;;;;;;;14.60;99.90;;;;;;5091077;28;19997;-75
2023/06/23 04:41:27;;;;;;;;;;;14.60;99.90;;;;;;5058811;28;20632;-75
2023/06/23 04:43:56;;;;;;;;;;;14.60;99.90;;;;;;5086255;28;20126;-75
2023/06/23 04:46:24;;;;;;;;;;;14.60;99.90;;;;;;5074168;28;20498;-75
2023/06/23 04:48:56;;;;;;;;;;;14.60;99.90;;;;;;5084040;28;20679;-75
2023/06/23 04:51:27;;;;;;;;;;;14.60;99.90;;;;;;5087842;28;20013;-75
2023/06/23 04:53:56;;;;;;;;;;;14.60;99.90;;;;;;5069862;28;20108;-74
2023/06/23 04:56:25;;;;;;;;;;;14.50;99.90;;;;;;5087830;28;20593;-75
2023/06/23 04:58:53;;;;;;;;;;;14.60;99.90;;;;;;5087800;28;20605;-76
2023/06/23 05:01:20;;;;;;;;;;;14.60;99.90;;;;;;5073308;28;20015;-75
2023/06/23 05:03:48;;;;;;;;;;;14.60;99.90;;;;;;5085163;28;19997;-75
2023/06/23 05:06:16;;;;;;;;;;;14.60;99.90;;;;;;5086866;28;20012;-76
2023/06/23 05:08:44;;;;;;;;;;;14.70;99.90;;;;;;5069546;28;20486;-76
2023/06/23 05:11:12;;;;;;;;;;;14.70;99.90;;;;;;5071446;28;20020;-75
2023/06/23 05:13:39;;;;;;;;;;;14.70;99.90;;;;;;5074229;28;20040;-75
2023/06/23 05:16:10;;;;;;;;;;;14.70;99.90;;;;;;5087932;28;20138;-75
2023/06/23 05:18:38;;;;;;;;;;;14.70;99.90;;;;;;5074127;28;19997;-75
2023/06/23 05:21:05;;;;;;;;;;;14.80;99.90;;;;;;5061527;28;20013;-76
2023/06/23 05:23:34;;;;;;;;;;;14.80;99.90;;;;;;5089458;28;20027;-76
2023/06/23 05:26:19;;;;;;;;;;;14.80;99.90;;;;;;5080648;28;20103;-76
2023/06/23 05:28:47;;;;;;;;;;;14.70;99.90;;;;;;5088252;28;20466;-76
2023/06/23 05:31:14;;;;;;;;;;;14.80;99.90;;;;;;5068916;28;20127;-76
2023/06/23 05:33:44;;;;;;;;;;;14.80;99.90;;;;;;5073883;28;20624;-76
2023/06/23 05:36:11;;;;;;;;;;;14.70;99.90;;;;;;5080770;28;20727;-76
2023/06/23 05:38:41;;;;;;;;;;;14.70;99.90;;;;;;5054842;28;20400;-76
2023/06/23 05:41:08;;;;;;;;;;;14.70;99.90;;;;;;5081784;28;20022;-75
2023/06/23 05:43:34;;;;;;;;;;;14.60;99.90;;;;;;5071819;28;19997;-76
2023/06/23 05:46:05;;;;;;;;;;;14.60;99.90;;;;;;5068436;28;20016;-75
2023/06/23 05:48:41;;;;;;;;;;;14.60;99.90;;;;;;5071074;28;20049;-75
2023/06/23 05:51:10;;;;;;;;;;;14.60;99.90;;;;;;5083184;28;20027;-74
2023/06/23 05:53:37;;;;;;;;;;;14.60;99.90;;;;;;5083684;28;20000;-76
2023/06/23 05:56:04;;;;;;;;;;;14.60;99.90;;;;;;5059967;28;20067;-75
2023/06/23 05:58:32;;;;;;;;;;;14.60;99.90;;;;;;5086061;28;20486;-75
2023/06/23 06:01:02;;;;;;;;;;;14.60;99.90;;;;;;5055483;28;20525;-75
2023/06/23 06:03:33;;;;;;;;;;;14.50;99.90;;;;;;5088331;28;20001;-74
2023/06/23 06:06:00;;;;;;;;;;;14.50;99.90;;;;;;5066250;28;20020;-75
2023/06/23 06:08:28;;;;;;;;;;;14.50;99.90;;;;;;5076034;28;20005;-75
2023/06/23 06:10:56;;;;;;;;;;;14.50;99.90;;;;;;5054321;28;20087;-76
2023/06/23 06:13:24;;;;;;;;;;;14.50;99.90;;;;;;5074879;28;20573;-75
2023/06/23 06:15:51;;;;;;;;;;;14.40;99.90;;;;;;5060145;28;20024;-75
2023/06/23 06:18:19;;;;;;;;;;;14.40;99.90;;;;;;5062215;28;20092;-75
2023/06/23 06:20:47;;;;;;;;;;;14.40;99.90;;;;;;5072695;28;20008;-75
2023/06/23 06:23:14;;;;;;;;;;;14.40;99.90;;;;;;5059163;28;20001;-75
2023/06/23 06:25:51;;;;;;;;;;;14.40;99.90;;;;;;5087343;28;20012;-75
2023/06/23 06:28:18;;;;;;;;;;;14.40;99.90;;;;;;5081982;28;20494;-76
2023/06/23 06:30:45;;;;;;;;;;;14.40;99.90;;;;;;5074391;28;20550;-76
2023/06/23 06:33:13;;;;;;;;;;;14.50;99.90;;;;;;5070369;28;20005;-76
2023/06/23 06:35:40;;;;;;;;;;;14.40;99.90;;;;;;5069792;28;20017;-76
2023/06/23 06:38:07;;;;;;;;;;;14.50;99.90;;;;;;5088762;28;20045;-76
2023/06/23 06:40:35;;;;;;;;;;;14.50;99.90;;;;;;5085059;28;20028;-72
2023/06/23 06:43:01;;;;;;;;;;;14.50;99.90;;;;;;5085407;28;19996;-72
2023/06/23 06:45:28;;;;;;;;;;;14.50;99.90;;;;;;5050710;28;20081;-71
2023/06/23 06:47:58;;;;;;;;;;;14.40;99.90;;;;;;5085216;28;20007;-71
2023/06/23 06:50:26;;;;;;;;;;;14.50;99.90;;;;;;5073204;28;20020;-73
2023/06/23 06:52:54;;;;;;;;;;;14.40;99.90;;;;;;5082869;28;20004;-74
2023/06/23 06:55:21;;;;;;;;;;;14.50;99.90;;;;;;5061191;28;20062;-72
2023/06/23 06:57:48;;;;;;;;;;;14.40;99.90;;;;;;5090852;28;20007;-71
2023/06/23 07:00:19;;;;;;;;;;;14.50;99.90;;;;;;5068067;28;20000;-71
2023/06/23 07:02:45;;;;;;;;;;;14.50;99.90;;;;;;5086502;28;20038;-72
2023/06/23 07:05:13;;;;;;;;;;;14.50;99.90;;;;;;5057345;28;20021;-72
2023/06/23 07:07:40;;;;;;;;;;;14.50;99.90;;;;;;5083800;28;20050;-71
2023/06/23 07:10:07;;;;;;;;;;;14.50;99.90;;;;;;5067340;28;19996;-72
2023/06/23 07:12:34;;;;;;;;;;;14.50;99.90;;;;;;5069020;28;20077;-71
2023/06/23 07:15:00;;;;;;;;;;;14.50;99.90;;;;;;5087938;28;20613;-72
2023/06/23 07:17:28;;;;;;;;;;;14.50;99.90;;;;;;5074236;28;20017;-71
2023/06/23 07:19:54;;;;;;;;;;;14.50;99.90;;;;;;5072040;28;19996;-70
2023/06/23 07:22:21;;;;;;;;;;;14.50;99.90;;;;;;5052316;28;20015;-72
2023/06/23 07:24:48;;;;;;;;;;;14.50;99.90;;;;;;5087212;28;20013;-72
2023/06/23 07:27:15;;;;;;;;;;;14.50;99.90;;;;;;5068909;28;21499;-72
2023/06/23 07:29:43;;;;;;;;;;;14.50;99.90;;;;;;5088846;28;20176;-72
2023/06/23 07:32:10;;;;;;;;;;;14.50;99.90;;;;;;5067548;28;20012;-72
2023/06/23 07:34:37;;;;;;;;;;;14.50;99.90;;;;;;5052969;28;20048;-72
2023/06/23 07:37:03;;;;;;;;;;;14.50;99.90;;;;;;5072668;28;20009;-73
2023/06/23 07:39:30;;;;;;;;;;;14.50;99.90;;;;;;5067981;28;20031;-71
2023/06/23 07:41:57;;;;;;;;;;;14.50;99.90;;;;;;5085054;28;20012;-72
2023/06/23 07:44:23;;;;;;;;;;;14.50;99.90;;;;;;5090457;28;20012;-72
2023/06/23 07:46:50;;;;;;;;;;;14.50;99.90;;;;;;5073455;28;20013;-71
2023/06/23 07:49:17;;;;;;;;;;;14.50;99.90;;;;;;5069722;28;20065;-71
2023/06/23 07:51:44;;;;;;;;;;;14.50;99.90;;;;;;5070662;28;20385;-74
2023/06/23 07:54:11;;;;;;;;;;;14.50;99.90;;;;;;5074978;28;20023;-72
2023/06/23 07:56:37;;;;;;;;;;;14.50;99.90;;;;;;5084499;28;20017;-71
2023/06/23 07:59:04;;;;;;;;;;;14.50;99.90;;;;;;5112688;28;19997;-71
2023/06/23 08:01:31;;;;;;;;;;;14.50;99.90;;;;;;5117981;28;20045;-72
2023/06/23 08:03:58;;;;;;;;;;;14.60;99.90;;;;;;5092254;28;19997;-72
2023/06/23 08:06:25;;;;;;;;;;;14.50;99.90;;;;;;5087392;28;20013;-72
2023/06/23 08:08:52;;;;;;;;;;;14.60;99.90;;;;;;5067141;28;20004;-72
2023/06/23 08:11:18;;;;;;;;;;;14.50;99.90;;;;;;5085081;28;20714;-71
2023/06/23 08:13:45;;;;;;;;;;;14.50;99.90;;;;;;5072908;28;20004;-72
2023/06/23 08:16:12;;;;;;;;;;;14.60;99.90;;;;;;5090620;28;20042;-72
2023/06/23 08:18:39;;;;;;;;;;;14.60;99.90;;;;;;5088012;28;20040;-72
2023/06/23 08:21:06;;;;;;;;;;;14.60;99.90;;;;;;5067542;28;20009;-73
2023/06/23 08:23:32;;;;;;;;;;;14.50;99.90;;;;;;5075804;28;19997;-72
2023/06/23 08:26:04;;;;;;;;;;;14.60;99.90;;;;;;5082479;28;20017;-73
2023/06/23 08:28:30;;;;;;;;;;;14.60;99.90;;;;;;5076363;28;19996;-72
2023/06/23 08:30:57;;;;;;;;;;;14.60;99.90;;;;;;5076256;28;20056;-72
2023/06/23 08:33:24;;;;;;;;;;;14.60;99.90;;;;;;5074256;28;20031;-72
2023/06/23 08:35:51;;;;;;;;;;;14.60;99.90;;;;;;5069522;28;20487;-72
2023/06/23 08:38:18;;;;;;;;;;;14.70;99.90;;;;;;5086609;28;21644;-71
2023/06/23 08:40:47;;;;;;;;;;;14.60;99.90;;;;;;5086204;28;20537;-70
2023/06/23 08:43:15;;;;;;;;;;;14.60;99.90;;;;;;5088798;28;20001;-71
2023/06/23 08:45:44;;;;;;;;;;;14.60;99.90;;;;;;5083648;28;20024;-71
2023/06/23 08:48:11;;;;;;;;;;;14.60;99.90;;;;;;5074515;28;20027;-72
2023/06/23 08:50:38;;;;;;;;;;;14.60;99.90;;;;;;5072905;28;20016;-73
2023/06/23 08:53:05;;;;;;;;;;;14.60;99.90;;;;;;5084436;28;20458;-72
2023/06/23 08:55:35;;;;;;;;;;;14.60;99.90;;;;;;5084377;28;20043;-72
2023/06/23 08:58:02;;;;;;;;;;;14.60;99.90;;;;;;5078471;28;19996;-73
2023/06/23 09:00:28;;;;;;;;;;;14.70;99.90;;;;;;5067730;28;20686;-72
2023/06/23 09:02:56;;;;;;;;;;;14.70;99.90;;;;;;5086063;28;20113;-72
2023/06/23 09:05:23;;;;;;;;;;;14.80;99.90;;;;;;5087624;28;20020;-72
2023/06/23 09:07:49;;;;;;;;;;;14.80;99.90;;;;;;5075235;28;20003;-72
2023/06/23 09:10:17;;;;;;;;;;;14.80;99.90;;;;;;5073266;28;20004;-72
2023/06/23 09:13:07;;;;;;;;;;;14.80;99.90;;;;;;5085534;28;20065;-73
2023/06/23 09:15:34;;;;;;;;;;;14.90;99.90;;;;;;5070966;28;20606;-73
2023/06/23 09:18:21;;;;;;;;;;;15.00;99.90;;;;;;5083507;28;20012;-72
2023/06/23 09:20:49;;;;;;;;;;;15.10;99.90;;;;;;5066102;28;20016;-73
2023/06/23 09:23:16;;;;;;;;;;;15.20;99.90;;;;;;5074573;28;20107;-71
2023/06/23 09:25:47;;;;;;;;;;;15.20;99.90;;;;;;5074548;28;20012;-72
2023/06/23 09:28:21;;;;;;;;;;;15.30;99.90;;;;;;5068974;28;20001;-73
2023/06/23 09:30:48;;;;;;;;;;;15.20;99.90;;;;;;5092133;28;20012;-72
2023/06/23 09:33:16;;;;;;;;;;;15.20;99.90;;;;;;5087006;28;19996;-72
2023/06/23 09:35:47;;;;;;;;;;;15.30;99.90;;;;;;5088500;28;20481;-72
2023/06/23 09:38:16;;;;;;;;;;;15.30;99.90;;;;;;5084389;28;20089;-71
2023/06/23 09:40:43;;;;;;;;;;;15.40;99.90;;;;;;5065222;28;20009;-70
2023/06/23 09:43:09;;;;;;;;;;;15.40;99.90;;;;;;5067067;28;20001;-72
2023/06/23 09:45:36;;;;;;;;;;;15.40;99.90;;;;;;5084358;28;20120;-72
2023/06/23 09:48:03;;;;;;;;;;;15.40;99.90;;;;;;5082913;28;20712;-71
2023/06/23 09:50:30;;;;;;;;;;;15.50;99.90;;;;;;5085899;28;20090;-72
2023/06/23 09:53:04;;;;;;;;;;;15.70;99.90;;;;;;5075853;28;20078;-71
2023/06/23 09:55:33;;;;;;;;;;;15.60;99.90;;;;;;5066767;28;20031;-72
2023/06/23 09:58:02;;;;;;;;;;;15.70;99.90;;;;;;5061137;28;20001;-72
2023/06/23 10:00:30;;;;;;;;;;;15.70;99.90;;;;;;5050854;28;20077;-71
2023/06/23 10:03:00;;;;;;;;;;;15.70;99.90;;;;;;5073556;28;20003;-70
2023/06/23 10:05:33;;;;;;;;;;;15.70;99.90;;;;;;5082132;28;20024;-71
2023/06/23 10:08:07;;;;;;;;;;;15.70;99.90;;;;;;5087279;28;20003;-72
2023/06/23 10:10:40;;;;;;;;;;;15.60;99.90;;;;;;5065492;28;20016;-72
2023/06/23 10:13:07;;;;;;;;;;;15.70;99.90;;;;;;5066721;28;20016;-72
2023/06/23 10:15:35;;;;;;;;;;;15.90;99.90;;;;;;5089406;28;20112;-72
2023/06/23 10:18:02;;;;;;;;;;;15.90;99.90;;;;;;5075296;28;20008;-71
2023/06/23 10:20:29;;;;;;;;;;;15.90;99.90;;;;;;5070892;28;20107;-72
2023/06/23 10:22:58;;;;;;;;;;;16.00;99.90;;;;;;5077378;28;19997;-72
2023/06/23 10:25:25;;;;;;;;;;;16.00;99.90;;;;;;5088905;28;21480;-72
2023/06/23 10:27:54;;;;;;;;;;;16.10;99.90;;;;;;5088551;28;20005;-71
2023/06/23 10:30:21;;;;;;;;;;;16.10;99.90;;;;;;5078897;28;20048;-71
2023/06/23 10:32:49;;;;;;;;;;;16.10;99.90;;;;;;5070256;28;20456;-71
2023/06/23 10:35:19;;;;;;;;;;;16.10;99.90;;;;;;5044104;28;20013;-71
2023/06/23 10:37:47;;;;;;;;;;;16.20;99.90;;;;;;5070858;28;19997;-72
2023/06/23 10:40:16;;;;;;;;;;;16.20;99.90;;;;;;5065415;28;20040;-71
2023/06/23 10:42:45;;;;;;;;;;;16.30;99.90;;;;;;5075788;28;20003;-71
2023/06/23 10:45:12;;;;;;;;;;;16.40;99.90;;;;;;5081372;28;20742;-72
2023/06/23 10:47:39;;;;;;;;;;;16.40;99.90;;;;;;5085998;28;20137;-72
2023/06/23 10:50:07;;;;;;;;;;;16.50;99.90;;;;;;5081564;28;19997;-72
2023/06/23 10:52:34;;;;;;;;;;;16.60;99.90;;;;;;5076226;28;20052;-72
2023/06/23 10:55:01;;;;;;;;;;;16.70;99.90;;;;;;5068665;28;20093;-73
2023/06/23 10:57:28;;;;;;;;;;;16.50;99.90;;;;;;5062984;28;21492;-71
2023/06/23 10:59:59;;;;;;;;;;;16.30;99.90;;;;;;5085151;28;20054;-72
2023/06/23 11:02:26;;;;;;;;;;;16.20;99.90;;;;;;5065847;28;20009;-71
2023/06/23 11:04:55;;;;;;;;;;;16.20;99.90;;;;;;5072085;28;20016;-73
2023/06/23 11:07:22;;;;;;;;;;;16.10;99.90;;;;;;5086327;28;20009;-72
2023/06/23 11:09:55;;;;;;;;;;;16.20;99.90;;;;;;5075144;28;20441;-72
2023/06/23 11:12:37;;;;;;;;;;;16.20;99.90;;;;;;5087488;28;20012;-72
2023/06/23 11:15:16;;;;;;;;;;;16.30;99.90;;;;;;5074242;28;20066;-73
2023/06/23 11:17:45;;;;;;;;;;;16.30;99.90;;;;;;5075647;28;20008;-71
2023/06/23 11:20:24;;;;;;;;;;;16.40;99.90;;;;;;5076956;28;19996;-71
2023/06/23 11:22:54;;;;;;;;;;;16.40;99.90;;;;;;5085366;28;20042;-70
2023/06/23 11:25:45;;;;;;;;;;;16.50;99.90;;;;;;5088391;28;20590;-71
2023/06/23 11:28:28;;;;;;;;;;;16.60;99.90;;;;;;5073869;28;20733;-71
2023/06/23 11:31:15;;;;;;;;;;;16.80;99.90;;;;;;5088802;28;20659;-71
2023/06/23 11:33:42;;;;;;;;;;;16.90;99.90;;;;;;5080274;28;20058;-71
2023/06/23 11:36:14;;;;;;;;;;;17.10;99.90;;;;;;5087487;28;20013;-70
2023/06/23 11:38:42;;;;;;;;;;;17.10;99.90;;;;;;5092302;28;19996;-71
2023/06/23 11:41:09;;;;;;;;;;;17.10;99.90;;;;;;5089788;28;20037;-70
2023/06/23 11:43:39;;;;;;;;;;;17.30;99.90;;;;;;5076797;28;20008;-71
2023/06/23 11:46:09;;;;;;;;;;;17.40;99.90;;;;;;5086048;28;20013;-70
2023/06/23 11:48:36;;;;;;;;;;;17.50;99.90;;;;;;5094816;28;19997;-70
2023/06/23 11:51:04;;;;;;;;;;;17.50;99.90;;;;;;5086868;28;20020;-72
2023/06/23 11:53:31;;;;;;;;;;;17.50;99.90;;;;;;5089961;28;20021;-73
2023/06/23 11:56:02;;;;;;;;;;;17.30;99.90;;;;;;5083188;28;20020;-73
2023/06/23 11:58:30;;;;;;;;;;;17.30;99.90;;;;;;5073224;28;20005;-71
2023/06/23 12:00:57;;;;;;;;;;;17.30;99.90;;;;;;5078512;28;20992;-71
2023/06/23 12:03:23;;;;;;;;;;;17.30;99.90;;;;;;5087546;28;20502;-72
2023/06/23 12:05:50;;;;;;;;;;;17.30;99.90;;;;;;5090949;28;20024;-72
2023/06/23 12:08:17;;;;;;;;;;;17.30;99.90;;;;;;5072282;28;20085;-75
2023/06/23 12:10:45;;;;;;;;;;;17.30;99.90;;;;;;5094071;28;20723;-76
2023/06/23 12:13:13;;;;;;;;;;;17.30;99.90;;;;;;5078880;28;20023;-75
2023/06/23 12:15:40;;;;;;;;;;;17.20;99.90;;;;;;5109257;28;20020;-74
2023/06/23 12:18:08;;;;;;;;;;;17.20;99.90;;;;;;5107100;28;20018;-74
2023/06/23 12:20:35;;;;;;;;;;;17.10;99.90;;;;;;5086210;28;20077;-76
2023/06/23 12:23:03;;;;;;;;;;;17.00;99.90;;;;;;5064991;28;20083;-76
2023/06/23 12:25:33;;;;;;;;;;;17.00;99.90;;;;;;5089218;28;20074;-75
2023/06/23 12:28:05;;;;;;;;;;;17.10;99.90;;;;;;5073070;28;20047;-71
2023/06/23 12:30:43;;;;;;;;;;;17.20;99.90;;;;;;5066115;28;20025;-71
2023/06/23 12:33:19;;;;;;;;;;;17.10;99.90;;;;;;5073033;28;20017;-70
2023/06/23 12:35:56;;;;;;;;;;;17.20;99.90;;;;;;5086379;28;20386;-71
2023/06/23 12:38:23;;;;;;;;;;;17.30;99.90;;;;;;5066022;28;20028;-70
2023/06/23 12:40:51;;;;;;;;;;;17.30;99.90;;;;;;5074067;28;20008;-70
2023/06/23 12:43:21;;;;;;;;;;;17.40;99.90;;;;;;5087188;28;19996;-71
2023/06/23 12:45:48;;;;;;;;;;;17.50;99.90;;;;;;5079143;28;20012;-70
2023/06/23 12:48:15;;;;;;;;;;;17.60;99.90;;;;;;5068904;28;20024;-70
2023/06/23 12:50:45;;;;;;;;;;;17.80;99.90;;;;;;5087941;28;20016;-69
2023/06/23 12:53:12;;;;;;;;;;;17.80;99.90;;;;;;5083673;28;20016;-70
2023/06/23 12:55:38;;;;;;;;;;;18.00;99.90;;;;;;5083032;28;20023;-70
2023/06/23 12:58:05;;;;;;;;;;;18.10;99.90;;;;;;5080246;28;20008;-69
2023/06/23 13:00:32;;;;;;;;;;;18.30;99.90;;;;;;5072326;28;20016;-68
2023/06/23 13:03:00;;;;;;;;;;;18.40;99.90;;;;;;5071436;28;20015;-69
2023/06/23 13:05:30;;;;;;;;;;;18.70;99.90;;;;;;5084706;28;20028;-70
2023/06/23 13:07:58;;;;;;;;;;;19.00;99.90;;;;;;5087184;28;20001;-69
2023/06/23 13:10:26;;;;;;;;;;;19.10;99.90;;;;;;5065142;28;20004;-69
2023/06/23 13:12:53;;;;;;;;;;;19.40;99.90;;;;;;5089705;28;20012;-70
2023/06/23 13:15:20;;;;;;;;;;;19.60;99.90;;;;;;5084646;28;20060;-70
2023/06/23 13:17:47;;;;;;;;;;;19.90;99.90;;;;;;5070828;28;19997;-69
2023/06/23 13:20:14;;;;;;;;;;;20.10;99.90;;;;;;5089542;28;20099;-68
2023/06/23 13:22:41;;;;;;;;;;;20.30;99.90;;;;;;5075920;28;20012;-68
2023/06/23 13:25:08;;;;;;;;;;;20.30;99.90;;;;;;5086036;28;20542;-68
2023/06/23 13:27:35;;;;;;;;;;;20.40;99.90;;;;;;5084976;28;20008;-70
2023/06/23 13:30:02;;;;;;;;;;;20.60;99.90;;;;;;5086782;28;20035;-69
2023/06/23 13:32:28;;;;;;;;;;;21.00;99.90;;;;;;5081981;28;20017;-70
2023/06/23 13:34:55;;;;;;;;;;;21.30;99.90;;;;;;5082828;28;20017;-70
2023/06/23 13:37:22;;;;;;;;;;;21.90;99.90;;;;;;5083820;28;20047;-69
2023/06/23 13:39:48;;;;;;;;;;;22.20;99.90;;;;;;5089175;28;20032;-70
2023/06/23 13:42:15;;;;;;;;;;;22.00;99.90;;;;;;5085703;28;20016;-69
2023/06/23 13:44:42;;;;;;;;;;;21.70;99.90;;;;;;5088434;28;20012;-68
2023/06/23 13:47:09;;;;;;;;;;;21.60;99.90;;;;;;5087397;28;20497;-68
2023/06/23 13:49:36;;;;;;;;;;;21.60;99.90;;;;;;5082327;28;20001;-70
2023/06/23 13:52:06;;;;;;;;;;;21.50;99.90;;;;;;5076861;28;20673;-70
2023/06/23 13:54:34;;;;;;;;;;;21.50;99.90;;;;;;5082106;28;20137;-70
2023/06/23 13:57:00;;;;;;;;;;;21.40;99.90;;;;;;5069315;28;20012;-70
2023/06/23 13:59:31;;;;;;;;;;;21.60;99.90;;;;;;5056400;28;20494;-69
2023/06/23 14:02:01;;;;;;;;;;;21.90;99.90;;;;;;5069581;28;20008;-69
2023/06/23 14:04:28;;;;;;;;;;;22.30;99.90;;;;;;5081912;28;20016;-69
2023/06/23 14:06:54;;;;;;;;;;;22.50;99.90;;;;;;5074878;28;20016;-68
2023/06/23 14:09:21;;;;;;;;;;;22.30;99.90;;;;;;5087636;28;20004;-69
2023/06/23 14:11:48;;;;;;;;;;;22.30;99.90;;;;;;5054504;28;20016;-69
2023/06/23 14:14:14;;;;;;;;;;;22.50;99.90;;;;;;5091764;28;20623;-70
2023/06/23 14:16:41;;;;;;;;;;;22.70;99.90;;;;;;5060173;28;20077;-69
2023/06/23 14:19:09;;;;;;;;;;;23.10;99.90;;;;;;5085720;28;20424;-70
2023/06/23 14:21:35;;;;;;;;;;;23.30;99.90;;;;;;5078482;28;20603;-68
2023/06/23 14:24:02;;;;;;;;;;;23.50;99.90;;;;;;5087094;28;20025;-70
2023/06/23 14:26:29;;;;;;;;;;;23.60;99.90;;;;;;5079975;28;20741;-69